sensor_id;sensor_type;location;lat;lon;timestamp;P1;durP1;ratioP1;P2;durP2;ratioP2
7029;SDS011;3556;53.500;10.176;2023-03-11T00:00:12;19.90;;;13.10;;
7029;SDS011;3556;53.500;10.176;2023-03-11T00:02:41;20.87;;;13.30;;
7029;SDS011;3556;53.500;10.176;2023-03-11T00:05:08;21.27;;;14.00;;
7029;SDS011;3556;53.500;10.176;2023-03-11T00:07:41;21.10;;;13.43;;
7029;SDS011;3556;53.500;10.176;2023-03-11T00:10:07;20.27;;;14.70;;
7029;SDS011;3556;53.500;10.176;2023-03-11T00:12:37;22.90;;;14.00;;
7029;SDS011;3556;53.500;10.176;2023-03-11T00:15:03;21.80;;;14.60;;
7029;SDS011;3556;53.500;10.176;2023-03-11T00:17:29;24.03;;;14.60;;
7029;SDS011;3556;53.500;10.176;2023-03-11T00:19:54;23.50;;;15.53;;
7029;SDS011;3556;53.500;10.176;2023-03-11T00:22:20;26.57;;;14.53;;
7029;SDS011;3556;53.500;10.176;2023-03-11T00:24:46;20.50;;;14.37;;
7029;SDS011;3556;53.500;10.176;2023-03-11T00:27:11;26.07;;;14.90;;
7029;SDS011;3556;53.500;10.176;2023-03-11T00:29:37;26.43;;;16.30;;
7029;SDS011;3556;53.500;10.176;2023-03-11T00:32:03;22.23;;;14.47;;
7029;SDS011;3556;53.500;10.176;2023-03-11T00:34:29;30.20;;;16.07;;
7029;SDS011;3556;53.500;10.176;2023-03-11T00:36:54;24.67;;;16.10;;
7029;SDS011;3556;53.500;10.176;2023-03-11T00:39:20;32.23;;;17.70;;
7029;SDS011;3556;53.500;10.176;2023-03-11T00:41:47;25.40;;;16.27;;
7029;SDS011;3556;53.500;10.176;2023-03-11T00:44:13;27.03;;;15.93;;
7029;SDS011;3556;53.500;10.176;2023-03-11T00:46:38;25.50;;;16.97;;
7029;SDS011;3556;53.500;10.176;2023-03-11T00:49:04;27.83;;;16.20;;
7029;SDS011;3556;53.500;10.176;2023-03-11T00:51:29;27.77;;;16.27;;
7029;SDS011;3556;53.500;10.176;2023-03-11T00:53:55;30.30;;;17.67;;
7029;SDS011;3556;53.500;10.176;2023-03-11T00:56:20;31.67;;;18.30;;
7029;SDS011;3556;53.500;10.176;2023-03-11T00:58:46;36.77;;;18.93;;
7029;SDS011;3556;53.500;10.176;2023-03-11T01:01:13;35.33;;;18.57;;
7029;SDS011;3556;53.500;10.176;2023-03-11T01:03:43;32.00;;;17.83;;
7029;SDS011;3556;53.500;10.176;2023-03-11T01:06:09;32.43;;;17.30;;
7029;SDS011;3556;53.500;10.176;2023-03-11T01:08:34;29.60;;;17.97;;
7029;SDS011;3556;53.500;10.176;2023-03-11T01:11:00;31.77;;;18.00;;
7029;SDS011;3556;53.500;10.176;2023-03-11T01:13:27;34.57;;;18.80;;
7029;SDS011;3556;53.500;10.176;2023-03-11T01:15:54;30.90;;;17.83;;
7029;SDS011;3556;53.500;10.176;2023-03-11T01:18:20;32.20;;;18.87;;
7029;SDS011;3556;53.500;10.176;2023-03-11T01:20:46;36.80;;;19.20;;
7029;SDS011;3556;53.500;10.176;2023-03-11T01:23:12;35.73;;;19.40;;
7029;SDS011;3556;53.500;10.176;2023-03-11T01:25:39;35.60;;;18.83;;
7029;SDS011;3556;53.500;10.176;2023-03-11T01:28:05;30.50;;;17.70;;
7029;SDS011;3556;53.500;10.176;2023-03-11T01:30:33;39.40;;;19.70;;
7029;SDS011;3556;53.500;10.176;2023-03-11T01:33:00;41.23;;;18.57;;
7029;SDS011;3556;53.500;10.176;2023-03-11T01:35:28;37.03;;;19.37;;
7029;SDS011;3556;53.500;10.176;2023-03-11T01:37:55;36.83;;;19.10;;
7029;SDS011;3556;53.500;10.176;2023-03-11T01:42:54;33.53;;;18.53;;
7029;SDS011;3556;53.500;10.176;2023-03-11T01:48:16;39.77;;;19.20;;
7029;SDS011;3556;53.500;10.176;2023-03-11T01:50:42;37.73;;;19.30;;
7029;SDS011;3556;53.500;10.176;2023-03-11T01:53:11;34.83;;;19.77;;
7029;SDS011;3556;53.500;10.176;2023-03-11T01:55:39;31.67;;;18.07;;
7029;SDS011;3556;53.500;10.176;2023-03-11T01:58:06;33.50;;;19.40;;
7029;SDS011;3556;53.500;10.176;2023-03-11T02:00:35;34.20;;;19.60;;
7029;SDS011;3556;53.500;10.176;2023-03-11T02:03:05;30.90;;;17.27;;
7029;SDS011;3556;53.500;10.176;2023-03-11T02:05:38;39.50;;;19.10;;
7029;SDS011;3556;53.500;10.176;2023-03-11T02:08:05;44.63;;;18.17;;
7029;SDS011;3556;53.500;10.176;2023-03-11T02:10:31;33.50;;;17.67;;
7029;SDS011;3556;53.500;10.176;2023-03-11T02:12:56;33.47;;;17.80;;
7029;SDS011;3556;53.500;10.176;2023-03-11T02:15:23;38.20;;;17.70;;
7029;SDS011;3556;53.500;10.176;2023-03-11T02:17:50;35.67;;;17.50;;
7029;SDS011;3556;53.500;10.176;2023-03-11T02:20:22;32.07;;;18.20;;
7029;SDS011;3556;53.500;10.176;2023-03-11T02:22:54;34.60;;;18.80;;
7029;SDS011;3556;53.500;10.176;2023-03-11T02:27:59;31.83;;;17.50;;
7029;SDS011;3556;53.500;10.176;2023-03-11T02:30:27;27.30;;;16.73;;
7029;SDS011;3556;53.500;10.176;2023-03-11T02:32:53;35.00;;;17.97;;
7029;SDS011;3556;53.500;10.176;2023-03-11T02:35:20;36.13;;;17.07;;
7029;SDS011;3556;53.500;10.176;2023-03-11T02:37:46;34.87;;;18.93;;
7029;SDS011;3556;53.500;10.176;2023-03-11T02:42:49;30.43;;;17.53;;
7029;SDS011;3556;53.500;10.176;2023-03-11T02:45:17;34.27;;;18.00;;
7029;SDS011;3556;53.500;10.176;2023-03-11T02:47:46;30.07;;;17.40;;
7029;SDS011;3556;53.500;10.176;2023-03-11T02:50:13;28.27;;;16.00;;
7029;SDS011;3556;53.500;10.176;2023-03-11T02:52:42;30.93;;;17.90;;
7029;SDS011;3556;53.500;10.176;2023-03-11T02:55:08;34.77;;;16.40;;
7029;SDS011;3556;53.500;10.176;2023-03-11T02:57:36;31.90;;;17.80;;
7029;SDS011;3556;53.500;10.176;2023-03-11T03:00:02;27.43;;;16.67;;
7029;SDS011;3556;53.500;10.176;2023-03-11T03:02:35;28.00;;;16.30;;
7029;SDS011;3556;53.500;10.176;2023-03-11T03:05:01;35.50;;;17.10;;
7029;SDS011;3556;53.500;10.176;2023-03-11T03:07:27;33.30;;;16.60;;
7029;SDS011;3556;53.500;10.176;2023-03-11T03:09:52;33.07;;;16.97;;
7029;SDS011;3556;53.500;10.176;2023-03-11T03:12:18;27.27;;;16.40;;
7029;SDS011;3556;53.500;10.176;2023-03-11T03:14:44;26.47;;;16.73;;
7029;SDS011;3556;53.500;10.176;2023-03-11T03:17:09;26.97;;;16.27;;
7029;SDS011;3556;53.500;10.176;2023-03-11T03:19:35;32.27;;;17.30;;
7029;SDS011;3556;53.500;10.176;2023-03-11T03:22:00;28.93;;;15.97;;
7029;SDS011;3556;53.500;10.176;2023-03-11T03:24:26;31.53;;;16.40;;
7029;SDS011;3556;53.500;10.176;2023-03-11T03:26:51;28.63;;;17.23;;
7029;SDS011;3556;53.500;10.176;2023-03-11T03:29:17;29.20;;;16.10;;
7029;SDS011;3556;53.500;10.176;2023-03-11T03:31:43;28.20;;;16.37;;
7029;SDS011;3556;53.500;10.176;2023-03-11T03:34:08;24.73;;;14.70;;
7029;SDS011;3556;53.500;10.176;2023-03-11T03:36:35;34.00;;;17.50;;
7029;SDS011;3556;53.500;10.176;2023-03-11T03:39:00;25.40;;;15.40;;
7029;SDS011;3556;53.500;10.176;2023-03-11T03:41:26;25.77;;;15.63;;
7029;SDS011;3556;53.500;10.176;2023-03-11T03:43:52;27.70;;;15.17;;
7029;SDS011;3556;53.500;10.176;2023-03-11T03:46:18;26.77;;;15.27;;
7029;SDS011;3556;53.500;10.176;2023-03-11T03:48:44;22.77;;;14.33;;
7029;SDS011;3556;53.500;10.176;2023-03-11T03:51:11;24.83;;;14.80;;
7029;SDS011;3556;53.500;10.176;2023-03-11T03:53:37;23.00;;;13.20;;
7029;SDS011;3556;53.500;10.176;2023-03-11T03:56:04;22.17;;;13.47;;
7029;SDS011;3556;53.500;10.176;2023-03-11T03:58:32;26.00;;;14.23;;
7029;SDS011;3556;53.500;10.176;2023-03-11T04:00:58;26.90;;;14.13;;
7029;SDS011;3556;53.500;10.176;2023-03-11T04:03:24;29.13;;;14.80;;
7029;SDS011;3556;53.500;10.176;2023-03-11T04:05:51;22.60;;;13.93;;
7029;SDS011;3556;53.500;10.176;2023-03-11T04:08:17;27.00;;;14.07;;
7029;SDS011;3556;53.500;10.176;2023-03-11T04:10:43;21.70;;;13.97;;
7029;SDS011;3556;53.500;10.176;2023-03-11T04:13:08;21.67;;;14.30;;
7029;SDS011;3556;53.500;10.176;2023-03-11T04:15:36;25.00;;;14.00;;
7029;SDS011;3556;53.500;10.176;2023-03-11T04:18:04;23.40;;;14.07;;
7029;SDS011;3556;53.500;10.176;2023-03-11T04:20:30;24.87;;;14.17;;
7029;SDS011;3556;53.500;10.176;2023-03-11T04:22:55;20.33;;;14.10;;
7029;SDS011;3556;53.500;10.176;2023-03-11T04:25:21;24.47;;;15.10;;
7029;SDS011;3556;53.500;10.176;2023-03-11T04:27:46;21.27;;;14.00;;
7029;SDS011;3556;53.500;10.176;2023-03-11T04:30:14;24.60;;;14.53;;
7029;SDS011;3556;53.500;10.176;2023-03-11T04:32:40;25.03;;;14.57;;
7029;SDS011;3556;53.500;10.176;2023-03-11T04:35:05;20.60;;;13.50;;
7029;SDS011;3556;53.500;10.176;2023-03-11T04:37:31;22.17;;;14.00;;
7029;SDS011;3556;53.500;10.176;2023-03-11T04:39:57;21.70;;;13.53;;
7029;SDS011;3556;53.500;10.176;2023-03-11T04:42:23;24.90;;;14.13;;
7029;SDS011;3556;53.500;10.176;2023-03-11T04:44:49;24.03;;;13.93;;
7029;SDS011;3556;53.500;10.176;2023-03-11T04:47:14;22.90;;;13.37;;
7029;SDS011;3556;53.500;10.176;2023-03-11T04:49:40;23.80;;;12.40;;
7029;SDS011;3556;53.500;10.176;2023-03-11T04:52:06;24.40;;;13.47;;
7029;SDS011;3556;53.500;10.176;2023-03-11T04:54:31;24.03;;;14.23;;
7029;SDS011;3556;53.500;10.176;2023-03-11T04:56:57;20.57;;;13.83;;
7029;SDS011;3556;53.500;10.176;2023-03-11T04:59:22;18.97;;;13.00;;
7029;SDS011;3556;53.500;10.176;2023-03-11T05:01:48;21.37;;;12.40;;
7029;SDS011;3556;53.500;10.176;2023-03-11T05:04:14;20.60;;;12.70;;
7029;SDS011;3556;53.500;10.176;2023-03-11T05:06:39;18.20;;;12.10;;
7029;SDS011;3556;53.500;10.176;2023-03-11T05:09:05;16.27;;;11.73;;
7029;SDS011;3556;53.500;10.176;2023-03-11T05:11:30;14.60;;;10.93;;
7029;SDS011;3556;53.500;10.176;2023-03-11T05:13:56;17.10;;;12.97;;
7029;SDS011;3556;53.500;10.176;2023-03-11T05:16:22;20.20;;;12.50;;
7029;SDS011;3556;53.500;10.176;2023-03-11T05:18:47;16.60;;;11.80;;
7029;SDS011;3556;53.500;10.176;2023-03-11T05:21:13;19.20;;;12.37;;
7029;SDS011;3556;53.500;10.176;2023-03-11T05:23:39;18.50;;;12.10;;
7029;SDS011;3556;53.500;10.176;2023-03-11T05:26:04;21.90;;;12.77;;
7029;SDS011;3556;53.500;10.176;2023-03-11T05:28:30;19.57;;;12.73;;
7029;SDS011;3556;53.500;10.176;2023-03-11T05:30:56;20.90;;;12.73;;
7029;SDS011;3556;53.500;10.176;2023-03-11T05:33:21;21.40;;;13.20;;
7029;SDS011;3556;53.500;10.176;2023-03-11T05:35:47;20.70;;;13.00;;
7029;SDS011;3556;53.500;10.176;2023-03-11T05:38:15;21.20;;;13.17;;
7029;SDS011;3556;53.500;10.176;2023-03-11T05:40:41;18.97;;;13.10;;
7029;SDS011;3556;53.500;10.176;2023-03-11T05:43:06;22.67;;;13.10;;
7029;SDS011;3556;53.500;10.176;2023-03-11T05:45:32;19.90;;;13.10;;
7029;SDS011;3556;53.500;10.176;2023-03-11T05:47:58;23.10;;;12.83;;
7029;SDS011;3556;53.500;10.176;2023-03-11T05:50:23;24.50;;;13.43;;
7029;SDS011;3556;53.500;10.176;2023-03-11T05:52:49;22.93;;;13.53;;
7029;SDS011;3556;53.500;10.176;2023-03-11T05:55:15;23.63;;;14.07;;
7029;SDS011;3556;53.500;10.176;2023-03-11T05:57:40;22.00;;;13.00;;
7029;SDS011;3556;53.500;10.176;2023-03-11T06:00:07;22.47;;;13.73;;
7029;SDS011;3556;53.500;10.176;2023-03-11T06:02:37;20.30;;;12.93;;
7029;SDS011;3556;53.500;10.176;2023-03-11T06:05:04;18.93;;;12.43;;
7029;SDS011;3556;53.500;10.176;2023-03-11T06:07:32;21.53;;;13.17;;
7029;SDS011;3556;53.500;10.176;2023-03-11T06:09:59;21.27;;;12.77;;
7029;SDS011;3556;53.500;10.176;2023-03-11T06:12:25;21.23;;;12.47;;
7029;SDS011;3556;53.500;10.176;2023-03-11T06:14:52;21.73;;;12.87;;
7029;SDS011;3556;53.500;10.176;2023-03-11T06:17:18;24.63;;;13.00;;
7029;SDS011;3556;53.500;10.176;2023-03-11T06:19:43;21.00;;;11.83;;
7029;SDS011;3556;53.500;10.176;2023-03-11T06:22:09;20.63;;;13.40;;
7029;SDS011;3556;53.500;10.176;2023-03-11T06:24:35;24.20;;;13.10;;
7029;SDS011;3556;53.500;10.176;2023-03-11T06:27:01;21.07;;;13.23;;
7029;SDS011;3556;53.500;10.176;2023-03-11T06:29:27;21.77;;;13.10;;
7029;SDS011;3556;53.500;10.176;2023-03-11T06:31:53;23.10;;;12.10;;
7029;SDS011;3556;53.500;10.176;2023-03-11T06:34:19;20.43;;;12.17;;
7029;SDS011;3556;53.500;10.176;2023-03-11T06:36:44;21.83;;;12.33;;
7029;SDS011;3556;53.500;10.176;2023-03-11T06:39:13;20.97;;;12.40;;
7029;SDS011;3556;53.500;10.176;2023-03-11T06:41:39;19.80;;;11.73;;
7029;SDS011;3556;53.500;10.176;2023-03-11T06:44:06;18.30;;;11.70;;
7029;SDS011;3556;53.500;10.176;2023-03-11T06:46:32;19.83;;;11.50;;
7029;SDS011;3556;53.500;10.176;2023-03-11T06:48:58;21.30;;;11.43;;
7029;SDS011;3556;53.500;10.176;2023-03-11T06:51:23;19.10;;;12.10;;
7029;SDS011;3556;53.500;10.176;2023-03-11T06:53:50;24.43;;;12.00;;
7029;SDS011;3556;53.500;10.176;2023-03-11T06:56:19;24.63;;;10.63;;
7029;SDS011;3556;53.500;10.176;2023-03-11T06:58:46;20.40;;;11.43;;
7029;SDS011;3556;53.500;10.176;2023-03-11T07:01:13;18.43;;;11.83;;
7029;SDS011;3556;53.500;10.176;2023-03-11T07:03:41;14.67;;;10.70;;
7029;SDS011;3556;53.500;10.176;2023-03-11T07:06:11;11.30;;;9.80;;
7029;SDS011;3556;53.500;10.176;2023-03-11T07:08:38;12.77;;;10.37;;
7029;SDS011;3556;53.500;10.176;2023-03-11T07:13:43;36.07;;;17.63;;
7029;SDS011;3556;53.500;10.176;2023-03-11T07:16:10;28.20;;;15.93;;
7029;SDS011;3556;53.500;10.176;2023-03-11T07:18:39;28.17;;;16.20;;
7029;SDS011;3556;53.500;10.176;2023-03-11T07:21:06;29.57;;;18.60;;
7029;SDS011;3556;53.500;10.176;2023-03-11T07:23:32;20.70;;;12.43;;
7029;SDS011;3556;53.500;10.176;2023-03-11T07:25:59;17.20;;;11.77;;
7029;SDS011;3556;53.500;10.176;2023-03-11T07:28:25;14.10;;;10.53;;
7029;SDS011;3556;53.500;10.176;2023-03-11T07:30:53;19.23;;;12.40;;
7029;SDS011;3556;53.500;10.176;2023-03-11T07:33:19;18.30;;;10.33;;
7029;SDS011;3556;53.500;10.176;2023-03-11T07:35:48;12.50;;;9.07;;
7029;SDS011;3556;53.500;10.176;2023-03-11T07:38:14;15.93;;;10.50;;
7029;SDS011;3556;53.500;10.176;2023-03-11T07:40:41;14.00;;;10.50;;
7029;SDS011;3556;53.500;10.176;2023-03-11T07:43:07;13.77;;;10.20;;
7029;SDS011;3556;53.500;10.176;2023-03-11T07:45:33;13.67;;;9.73;;
7029;SDS011;3556;53.500;10.176;2023-03-11T07:47:58;12.00;;;9.23;;
7029;SDS011;3556;53.500;10.176;2023-03-11T07:50:24;12.83;;;10.07;;
7029;SDS011;3556;53.500;10.176;2023-03-11T07:52:49;13.63;;;9.60;;
7029;SDS011;3556;53.500;10.176;2023-03-11T07:55:15;10.90;;;9.33;;
7029;SDS011;3556;53.500;10.176;2023-03-11T07:57:41;15.90;;;9.57;;
7029;SDS011;3556;53.500;10.176;2023-03-11T08:00:07;12.00;;;9.50;;
7029;SDS011;3556;53.500;10.176;2023-03-11T08:02:34;11.47;;;9.50;;
7029;SDS011;3556;53.500;10.176;2023-03-11T08:04:59;8.40;;;7.60;;
7029;SDS011;3556;53.500;10.176;2023-03-11T08:07:25;10.80;;;8.80;;
7029;SDS011;3556;53.500;10.176;2023-03-11T08:09:50;8.57;;;7.67;;
7029;SDS011;3556;53.500;10.176;2023-03-11T08:12:16;9.60;;;8.10;;
7029;SDS011;3556;53.500;10.176;2023-03-11T08:14:42;9.53;;;8.03;;
7029;SDS011;3556;53.500;10.176;2023-03-11T08:17:08;9.27;;;7.53;;
7029;SDS011;3556;53.500;10.176;2023-03-11T08:19:34;7.70;;;7.00;;
7029;SDS011;3556;53.500;10.176;2023-03-11T08:22:00;10.00;;;7.83;;
7029;SDS011;3556;53.500;10.176;2023-03-11T08:24:27;9.23;;;8.10;;
7029;SDS011;3556;53.500;10.176;2023-03-11T08:26:52;7.47;;;6.77;;
7029;SDS011;3556;53.500;10.176;2023-03-11T08:29:19;7.53;;;6.80;;
7029;SDS011;3556;53.500;10.176;2023-03-11T08:31:45;6.57;;;6.03;;
7029;SDS011;3556;53.500;10.176;2023-03-11T08:34:10;7.23;;;6.00;;
7029;SDS011;3556;53.500;10.176;2023-03-11T08:36:36;7.00;;;6.43;;
7029;SDS011;3556;53.500;10.176;2023-03-11T08:39:02;6.70;;;5.73;;
7029;SDS011;3556;53.500;10.176;2023-03-11T08:41:28;7.10;;;6.50;;
7029;SDS011;3556;53.500;10.176;2023-03-11T08:43:54;10.30;;;6.20;;
7029;SDS011;3556;53.500;10.176;2023-03-11T08:46:22;6.47;;;5.30;;
7029;SDS011;3556;53.500;10.176;2023-03-11T08:48:48;8.13;;;6.27;;
7029;SDS011;3556;53.500;10.176;2023-03-11T08:51:14;5.97;;;5.57;;
7029;SDS011;3556;53.500;10.176;2023-03-11T08:53:40;5.90;;;5.50;;
7029;SDS011;3556;53.500;10.176;2023-03-11T08:56:06;6.03;;;5.57;;
7029;SDS011;3556;53.500;10.176;2023-03-11T08:58:32;6.67;;;5.63;;
7029;SDS011;3556;53.500;10.176;2023-03-11T09:00:58;6.10;;;5.70;;
7029;SDS011;3556;53.500;10.176;2023-03-11T09:03:24;8.30;;;6.13;;
7029;SDS011;3556;53.500;10.176;2023-03-11T09:05:55;11.07;;;7.83;;
7029;SDS011;3556;53.500;10.176;2023-03-11T09:08:21;6.77;;;6.17;;
7029;SDS011;3556;53.500;10.176;2023-03-11T09:10:47;21.53;;;12.30;;
7029;SDS011;3556;53.500;10.176;2023-03-11T09:13:13;15.07;;;10.80;;
7029;SDS011;3556;53.500;10.176;2023-03-11T09:15:38;30.73;;;17.00;;
7029;SDS011;3556;53.500;10.176;2023-03-11T09:18:04;13.40;;;10.60;;
7029;SDS011;3556;53.500;10.176;2023-03-11T09:20:30;10.50;;;7.63;;
7029;SDS011;3556;53.500;10.176;2023-03-11T09:22:55;16.00;;;10.17;;
7029;SDS011;3556;53.500;10.176;2023-03-11T09:25:21;6.00;;;5.60;;
7029;SDS011;3556;53.500;10.176;2023-03-11T09:27:46;10.10;;;6.80;;
7029;SDS011;3556;53.500;10.176;2023-03-11T09:30:12;20.90;;;10.20;;
7029;SDS011;3556;53.500;10.176;2023-03-11T09:32:38;8.77;;;6.10;;
7029;SDS011;3556;53.500;10.176;2023-03-11T09:35:03;5.37;;;4.17;;
7029;SDS011;3556;53.500;10.176;2023-03-11T09:37:29;7.20;;;6.33;;
7029;SDS011;3556;53.500;10.176;2023-03-11T09:39:55;4.67;;;4.37;;
7029;SDS011;3556;53.500;10.176;2023-03-11T09:45:25;4.37;;;4.17;;
7029;SDS011;3556;53.500;10.176;2023-03-11T09:48:06;4.43;;;4.10;;
7029;SDS011;3556;53.500;10.176;2023-03-11T09:50:51;3.97;;;3.60;;
7029;SDS011;3556;53.500;10.176;2023-03-11T09:53:41;6.33;;;3.23;;
7029;SDS011;3556;53.500;10.176;2023-03-11T09:56:16;3.90;;;3.53;;
7029;SDS011;3556;53.500;10.176;2023-03-11T09:58:49;3.30;;;3.10;;
7029;SDS011;3556;53.500;10.176;2023-03-11T10:01:23;3.67;;;3.47;;
7029;SDS011;3556;53.500;10.176;2023-03-11T10:03:56;5.33;;;4.03;;
7029;SDS011;3556;53.500;10.176;2023-03-11T10:06:30;3.87;;;3.67;;
7029;SDS011;3556;53.500;10.176;2023-03-11T10:08:59;4.40;;;3.40;;
7029;SDS011;3556;53.500;10.176;2023-03-11T10:11:41;4.00;;;3.57;;
7029;SDS011;3556;53.500;10.176;2023-03-11T10:19:57;3.53;;;3.07;;
7029;SDS011;3556;53.500;10.176;2023-03-11T10:25:24;3.47;;;2.83;;
7029;SDS011;3556;53.500;10.176;2023-03-11T10:28:05;3.87;;;2.73;;
7029;SDS011;3556;53.500;10.176;2023-03-11T10:30:40;3.67;;;2.67;;
7029;SDS011;3556;53.500;10.176;2023-03-11T10:33:19;4.10;;;2.73;;
7029;SDS011;3556;53.500;10.176;2023-03-11T10:36:03;6.47;;;3.90;;
7029;SDS011;3556;53.500;10.176;2023-03-11T10:40:56;4.97;;;4.67;;
7029;SDS011;3556;53.500;10.176;2023-03-11T10:43:36;6.87;;;5.20;;
7029;SDS011;3556;53.500;10.176;2023-03-11T10:46:06;5.33;;;4.90;;
7029;SDS011;3556;53.500;10.176;2023-03-11T10:48:41;4.70;;;4.50;;
7029;SDS011;3556;53.500;10.176;2023-03-11T10:53:52;4.07;;;3.80;;
7029;SDS011;3556;53.500;10.176;2023-03-11T10:56:38;4.80;;;4.30;;
7029;SDS011;3556;53.500;10.176;2023-03-11T10:59:16;4.23;;;3.93;;
7029;SDS011;3556;53.500;10.176;2023-03-11T11:01:52;4.50;;;4.27;;
7029;SDS011;3556;53.500;10.176;2023-03-11T11:04:24;9.70;;;4.50;;
7029;SDS011;3556;53.500;10.176;2023-03-11T11:06:53;6.13;;;4.70;;
7029;SDS011;3556;53.500;10.176;2023-03-11T11:09:20;8.90;;;4.20;;
7029;SDS011;3556;53.500;10.176;2023-03-11T11:14:50;4.03;;;3.73;;
7029;SDS011;3556;53.500;10.176;2023-03-11T11:17:23;3.30;;;3.07;;
7029;SDS011;3556;53.500;10.176;2023-03-11T11:19:53;4.10;;;3.90;;
7029;SDS011;3556;53.500;10.176;2023-03-11T11:22:22;9.77;;;4.40;;
7029;SDS011;3556;53.500;10.176;2023-03-11T11:24:49;3.93;;;3.63;;
7029;SDS011;3556;53.500;10.176;2023-03-11T11:29:43;4.63;;;3.90;;
7029;SDS011;3556;53.500;10.176;2023-03-11T11:32:17;3.67;;;3.40;;
7029;SDS011;3556;53.500;10.176;2023-03-11T11:37:31;7.40;;;4.03;;
7029;SDS011;3556;53.500;10.176;2023-03-11T11:40:44;9.23;;;4.20;;
7029;SDS011;3556;53.500;10.176;2023-03-11T11:43:05;7.40;;;3.67;;
7029;SDS011;3556;53.500;10.176;2023-03-11T11:45:45;3.63;;;3.43;;
7029;SDS011;3556;53.500;10.176;2023-03-11T11:51:22;3.87;;;3.50;;
7029;SDS011;3556;53.500;10.176;2023-03-11T11:56:42;3.87;;;3.60;;
7029;SDS011;3556;53.500;10.176;2023-03-11T11:59:12;6.50;;;3.37;;
7029;SDS011;3556;53.500;10.176;2023-03-11T12:04:38;2.67;;;2.23;;
7029;SDS011;3556;53.500;10.176;2023-03-11T12:07:24;6.00;;;2.40;;
7029;SDS011;3556;53.500;10.176;2023-03-11T12:10:09;5.23;;;2.47;;
7029;SDS011;3556;53.500;10.176;2023-03-11T12:16:25;3.13;;;2.00;;
7029;SDS011;3556;53.500;10.176;2023-03-11T12:27:08;3.10;;;2.60;;
7029;SDS011;3556;53.500;10.176;2023-03-11T12:29:46;7.90;;;2.20;;
7029;SDS011;3556;53.500;10.176;2023-03-11T12:32:22;4.90;;;1.93;;
7029;SDS011;3556;53.500;10.176;2023-03-11T12:34:54;3.07;;;2.33;;
7029;SDS011;3556;53.500;10.176;2023-03-11T12:37:28;2.70;;;1.90;;
7029;SDS011;3556;53.500;10.176;2023-03-11T12:39:54;2.30;;;1.80;;
7029;SDS011;3556;53.500;10.176;2023-03-11T12:42:21;5.10;;;1.70;;
7029;SDS011;3556;53.500;10.176;2023-03-11T12:44:49;5.07;;;1.70;;
7029;SDS011;3556;53.500;10.176;2023-03-11T12:47:16;16.97;;;2.13;;
7029;SDS011;3556;53.500;10.176;2023-03-11T12:49:52;2.80;;;1.30;;
7029;SDS011;3556;53.500;10.176;2023-03-11T12:52:50;2.40;;;2.20;;
7029;SDS011;3556;53.500;10.176;2023-03-11T12:57:49;3.87;;;2.83;;
7029;SDS011;3556;53.500;10.176;2023-03-11T13:00:23;5.43;;;2.60;;
7029;SDS011;3556;53.500;10.176;2023-03-11T13:05:59;3.33;;;1.83;;
7029;SDS011;3556;53.500;10.176;2023-03-11T13:08:50;2.00;;;1.90;;
7029;SDS011;3556;53.500;10.176;2023-03-11T13:11:42;3.63;;;2.17;;
7029;SDS011;3556;53.500;10.176;2023-03-11T13:16:42;2.27;;;2.07;;
7029;SDS011;3556;53.500;10.176;2023-03-11T13:21:50;4.20;;;1.87;;
7029;SDS011;3556;53.500;10.176;2023-03-11T13:29:42;2.93;;;2.07;;
7029;SDS011;3556;53.500;10.176;2023-03-11T13:32:33;3.73;;;2.20;;
7029;SDS011;3556;53.500;10.176;2023-03-11T13:40:21;5.13;;;2.43;;
7029;SDS011;3556;53.500;10.176;2023-03-11T13:43:04;2.40;;;2.23;;
7029;SDS011;3556;53.500;10.176;2023-03-11T13:45:50;4.03;;;1.80;;
7029;SDS011;3556;53.500;10.176;2023-03-11T13:48:20;5.57;;;2.37;;
7029;SDS011;3556;53.500;10.176;2023-03-11T13:54:07;1.93;;;1.70;;
7029;SDS011;3556;53.500;10.176;2023-03-11T13:56:49;4.10;;;2.40;;
7029;SDS011;3556;53.500;10.176;2023-03-11T14:02:17;8.53;;;2.50;;
7029;SDS011;3556;53.500;10.176;2023-03-11T14:04:52;3.73;;;1.70;;
7029;SDS011;3556;53.500;10.176;2023-03-11T14:07:23;1.97;;;1.70;;
7029;SDS011;3556;53.500;10.176;2023-03-11T14:12:46;2.00;;;1.90;;
7029;SDS011;3556;53.500;10.176;2023-03-11T14:15:14;2.53;;;2.30;;
7029;SDS011;3556;53.500;10.176;2023-03-11T14:17:49;2.47;;;1.87;;
7029;SDS011;3556;53.500;10.176;2023-03-11T14:20:35;1.97;;;1.87;;
7029;SDS011;3556;53.500;10.176;2023-03-11T14:23:02;6.97;;;2.30;;
7029;SDS011;3556;53.500;10.176;2023-03-11T14:25:28;2.60;;;2.23;;
7029;SDS011;3556;53.500;10.176;2023-03-11T14:28:01;2.67;;;2.47;;
7029;SDS011;3556;53.500;10.176;2023-03-11T14:30:29;1.87;;;1.77;;
7029;SDS011;3556;53.500;10.176;2023-03-11T14:33:03;5.47;;;1.70;;
7029;SDS011;3556;53.500;10.176;2023-03-11T14:35:31;5.23;;;2.20;;
7029;SDS011;3556;53.500;10.176;2023-03-11T14:37:58;3.47;;;1.70;;
7029;SDS011;3556;53.500;10.176;2023-03-11T14:40:31;1.67;;;1.50;;
7029;SDS011;3556;53.500;10.176;2023-03-11T14:43:02;2.80;;;1.60;;
7029;SDS011;3556;53.500;10.176;2023-03-11T14:45:31;1.80;;;1.70;;
7029;SDS011;3556;53.500;10.176;2023-03-11T14:50:43;1.53;;;1.37;;
7029;SDS011;3556;53.500;10.176;2023-03-11T14:53:17;6.70;;;1.80;;
7029;SDS011;3556;53.500;10.176;2023-03-11T15:01:04;4.60;;;1.47;;
7029;SDS011;3556;53.500;10.176;2023-03-11T15:03:37;1.40;;;1.30;;
7029;SDS011;3556;53.500;10.176;2023-03-11T15:06:25;1.80;;;1.70;;
7029;SDS011;3556;53.500;10.176;2023-03-11T15:09:01;4.47;;;2.20;;
7029;SDS011;3556;53.500;10.176;2023-03-11T15:11:59;2.20;;;1.47;;
7029;SDS011;3556;53.500;10.176;2023-03-11T15:14:29;1.90;;;1.50;;
7029;SDS011;3556;53.500;10.176;2023-03-11T15:17:07;3.37;;;1.53;;
7029;SDS011;3556;53.500;10.176;2023-03-11T15:19:38;1.90;;;1.80;;
7029;SDS011;3556;53.500;10.176;2023-03-11T15:22:05;2.40;;;1.40;;
7029;SDS011;3556;53.500;10.176;2023-03-11T15:25:01;3.93;;;1.50;;
7029;SDS011;3556;53.500;10.176;2023-03-11T15:27:36;1.80;;;1.70;;
7029;SDS011;3556;53.500;10.176;2023-03-11T15:32:51;2.90;;;1.63;;
7029;SDS011;3556;53.500;10.176;2023-03-11T15:35:18;1.60;;;1.50;;
7029;SDS011;3556;53.500;10.176;2023-03-11T15:37:45;2.53;;;1.70;;
7029;SDS011;3556;53.500;10.176;2023-03-11T15:40:25;8.90;;;1.70;;
7029;SDS011;3556;53.500;10.176;2023-03-11T15:45:50;2.10;;;1.47;;
7029;SDS011;3556;53.500;10.176;2023-03-11T15:48:18;2.70;;;1.30;;
7029;SDS011;3556;53.500;10.176;2023-03-11T15:50:54;7.60;;;1.70;;
7029;SDS011;3556;53.500;10.176;2023-03-11T15:53:24;8.30;;;1.50;;
7029;SDS011;3556;53.500;10.176;2023-03-11T15:55:51;1.70;;;1.60;;
7029;SDS011;3556;53.500;10.176;2023-03-11T15:58:18;4.33;;;1.60;;
7029;SDS011;3556;53.500;10.176;2023-03-11T16:00:46;1.47;;;1.37;;
7029;SDS011;3556;53.500;10.176;2023-03-11T16:03:13;5.83;;;1.33;;
7029;SDS011;3556;53.500;10.176;2023-03-11T16:05:39;1.53;;;1.40;;
7029;SDS011;3556;53.500;10.176;2023-03-11T16:08:05;1.30;;;1.30;;
7029;SDS011;3556;53.500;10.176;2023-03-11T16:10:31;2.40;;;2.00;;
7029;SDS011;3556;53.500;10.176;2023-03-11T16:12:56;1.87;;;1.77;;
7029;SDS011;3556;53.500;10.176;2023-03-11T16:15:26;2.40;;;1.53;;
7029;SDS011;3556;53.500;10.176;2023-03-11T16:17:57;2.90;;;1.67;;
7029;SDS011;3556;53.500;10.176;2023-03-11T16:20:25;5.53;;;1.60;;
7029;SDS011;3556;53.500;10.176;2023-03-11T16:22:55;6.87;;;2.00;;
7029;SDS011;3556;53.500;10.176;2023-03-11T16:25:25;2.17;;;1.83;;
7029;SDS011;3556;53.500;10.176;2023-03-11T16:27:54;1.53;;;1.43;;
7029;SDS011;3556;53.500;10.176;2023-03-11T16:30:21;5.63;;;2.17;;
7029;SDS011;3556;53.500;10.176;2023-03-11T16:32:48;1.93;;;1.83;;
7029;SDS011;3556;53.500;10.176;2023-03-11T16:35:14;3.40;;;2.23;;
7029;SDS011;3556;53.500;10.176;2023-03-11T16:37:41;2.10;;;2.00;;